Time,TemperatureF,DewpointF,PressureIn,WindDirection,WindDirectionDegrees,WindSpeedMPH,WindSpeedGustMPH,Humidity,HourlyPrecipIn,Conditions,Clouds,dailyrainin,SoftwareType,DateUTC
2013-08-21 00:01:00,64.3,62.5,30.09,East,82,0.0,0.0,94,0.00,,SKC,0.05,VWS V14.01,2013-08-21 04:01:00,
2013-08-21 00:06:00,64.4,62.9,30.09,East,82,0.0,0.0,95,0.00,,SKC,0.00,VWS V14.01,2013-08-21 04:06:00,
2013-08-21 00:11:00,64.4,62.9,30.09,East,82,0.0,0.0,95,0.00,,SKC,0.00,VWS V14.01,2013-08-21 04:11:00,
2013-08-21 00:16:00,64.4,62.9,30.09,East,82,0.0,0.0,95,0.00,,SKC,0.00,VWS V14.01,2013-08-21 04:16:00,
2013-08-21 00:21:00,64.5,63.0,30.09,East,82,0.0,0.0,95,0.00,,SKC,0.00,VWS V14.01,2013-08-21 04:21:00,
2013-08-21 00:26:00,64.5,63.0,30.09,East,82,0.0,0.0,95,0.00,,SKC,0.00,VWS V14.01,2013-08-21 04:26:00,
2013-08-21 00:31:00,64.4,62.9,30.09,East,82,0.0,0.0,95,0.00,,SKC,0.00,VWS V14.01,2013-08-21 04:31:00,
2013-08-21 00:36:00,64.4,62.9,30.09,East,82,0.0,0.0,95,0.00,,SKC,0.00,VWS V14.01,2013-08-21 04:36:00,
2013-08-21 00:41:00,64.3,62.8,30.09,East,82,0.0,0.0,95,0.00,,SKC,0.00,VWS V14.01,2013-08-21 04:41:00,
2013-08-21 00:46:00,64.3,62.8,30.09,East,82,0.0,0.0,95,0.00,,SKC,0.00,VWS V14.01,2013-08-21 04:46:00,
2013-08-21 00:51:00,64.2,62.7,30.09,East,82,0.0,0.0,95,0.00,,SKC,0.00,VWS V14.01,2013-08-21 04:51:00,
2013-08-21 00:56:00,64.2,62.7,30.09,East,82,0.0,0.0,95,0.00,,SKC,0.00,VWS V14.01,2013-08-21 04:56:00,
2013-08-21 01:01:00,64.1,62.6,30.09,East,82,0.0,0.0,95,0.00,,SKC,0.00,VWS V14.01,2013-08-21 05:01:00,
2013-08-21 01:06:00,64.1,62.6,30.09,East,82,0.0,0.0,95,0.00,,SKC,0.00,VWS V14.01,2013-08-21 05:06:00,
2013-08-21 01:11:00,64.0,62.5,30.09,East,82,0.0,0.0,95,0.00,,SKC,0.00,VWS V14.01,2013-08-21 05:11:00,
2013-08-21 01:16:00,63.9,62.4,30.09,East,82,0.0,0.0,95,0.00,,SKC,0.00,VWS V14.01,2013-08-21 05:16:00,
2013-08-21 01:21:00,63.8,62.3,30.09,East,82,0.0,0.0,95,0.00,,SKC,0.00,VWS V14.01,2013-08-21 05:21:00,
2013-08-21 01:26:00,63.7,62.2,30.09,East,82,0.0,0.0,95,0.00,,SKC,0.00,VWS V14.01,2013-08-21 05:26:00,
2013-08-21 01:31:00,63.6,62.2,30.09,East,82,0.0,0.0,95,0.00,,SKC,0.00,VWS V14.01,2013-08-21 05:31:00,
2013-08-21 01:35:00,63.5,62.0,30.09,East,82,0.0,0.0,95,0.00,,SKC,0.00,VWS V14.01,2013-08-21 05:35:00,
2013-08-21 01:40:00,63.5,62.0,30.09,East,82,0.0,0.0,95,0.00,,SKC,0.00,VWS V14.01,2013-08-21 05:40:00,
2013-08-21 01:45:00,63.4,62.0,30.09,East,82,0.0,0.0,95,0.00,,SKC,0.00,VWS V14.01,2013-08-21 05:45:00,
2013-08-21 01:50:00,63.3,61.8,30.09,East,82,0.0,0.0,95,0.00,,SKC,0.00,VWS V14.01,2013-08-21 05:50:00,
2013-08-21 01:55:00,63.2,61.8,30.09,East,82,0.0,0.0,95,0.00,,SKC,0.00,VWS V14.01,2013-08-21 05:55:00,
2013-08-21 02:00:00,63.1,61.7,30.09,East,82,0.0,0.0,95,0.00,,SKC,0.00,VWS V14.01,2013-08-21 06:00:00,
2013-08-21 02:05:00,63.0,61.5,30.09,East,82,0.0,0.0,95,0.00,,SKC,0.00,VWS V14.01,2013-08-21 06:05:00,
2013-08-21 02:10:00,62.9,61.5,30.09,East,82,0.0,0.0,95,0.00,,SKC,0.00,VWS V14.01,2013-08-21 06:10:00,
2013-08-21 02:15:00,62.9,61.5,30.09,East,82,0.0,0.0,95,0.00,,SKC,0.00,VWS V14.01,2013-08-21 06:15:00,
2013-08-21 02:20:00,62.9,61.5,30.09,East,82,0.0,0.0,95,0.00,,SKC,0.00,VWS V14.01,2013-08-21 06:20:00,
2013-08-21 02:25:00,62.8,61.3,30.09,East,82,0.0,0.0,95,0.00,,SKC,0.00,VWS V14.01,2013-08-21 06:25:00,
2013-08-21 02:30:00,62.7,61.2,30.09,East,82,0.0,0.0,95,0.00,,SKC,0.00,VWS V14.01,2013-08-21 06:30:00,
2013-08-21 02:35:00,62.7,61.2,30.09,East,82,0.0,0.0,95,0.00,,SKC,0.00,VWS V14.01,2013-08-21 06:35:00,
2013-08-21 02:40:00,62.6,61.2,30.09,East,82,0.0,0.0,95,0.00,,SKC,0.00,VWS V14.01,2013-08-21 06:40:00,
2013-08-21 02:45:00,62.5,61.0,30.09,East,82,0.0,0.0,95,0.00,,SKC,0.00,VWS V14.01,2013-08-21 06:45:00,
2013-08-21 02:50:00,62.4,61.0,30.09,East,82,0.0,0.0,95,0.00,,SKC,0.00,VWS V14.01,2013-08-21 06:50:00,
2013-08-21 02:55:00,62.3,60.8,30.09,East,82,0.0,0.0,95,0.00,,SKC,0.00,VWS V14.01,2013-08-21 06:55:00,
2013-08-21 03:00:00,62.3,60.8,30.09,East,82,0.0,0.0,95,0.00,,SKC,0.00,VWS V14.01,2013-08-21 07:00:00,
2013-08-21 03:05:00,62.3,60.8,30.09,East,82,0.0,0.0,95,0.00,,SKC,0.00,VWS V14.01,2013-08-21 07:05:00,
2013-08-21 03:10:00,62.3,60.8,30.09,East,82,0.0,0.0,95,0.00,,SKC,0.00,VWS V14.01,2013-08-21 07:10:00,
2013-08-21 03:15:00,62.2,60.8,30.09,East,82,0.0,0.0,95,0.00,,SKC,0.00,VWS V14.01,2013-08-21 07:15:00,
2013-08-21 03:20:00,62.1,60.7,30.09,East,82,0.0,0.0,95,0.00,,SKC,0.00,VWS V14.01,2013-08-21 07:20:00,
2013-08-21 03:25:00,62.1,60.7,30.09,East,82,0.0,0.0,95,0.00,,SKC,0.00,VWS V14.01,2013-08-21 07:25:00,
2013-08-21 03:30:00,62.2,60.8,30.09,East,82,0.0,0.0,95,0.00,,SKC,0.00,VWS V14.01,2013-08-21 07:30:00,
2013-08-21 03:35:00,62.2,60.8,30.09,East,82,0.0,0.0,95,0.00,,SKC,0.00,VWS V14.01,2013-08-21 07:35:00,
2013-08-21 03:40:00,62.1,60.7,30.09,East,82,0.0,0.0,95,0.00,,SKC,0.00,VWS V14.01,2013-08-21 07:40:00,
2013-08-21 03:45:00,62.0,60.6,30.09,East,82,0.0,0.0,95,0.00,,SKC,0.00,VWS V14.01,2013-08-21 07:45:00,
2013-08-21 03:50:00,61.9,60.5,30.09,East,82,0.0,0.0,95,0.00,,SKC,0.00,VWS V14.01,2013-08-21 07:50:00,
2013-08-21 03:55:00,61.9,60.5,30.09,East,82,0.0,0.0,95,0.00,,SKC,0.00,VWS V14.01,2013-08-21 07:55:00,
2013-08-21 04:00:00,61.9,60.5,30.09,East,82,2.0,2.0,95,0.00,,SKC,0.00,VWS V14.01,2013-08-21 08:00:00,
2013-08-21 04:05:00,61.9,60.5,30.09,East,82,0.0,1.0,95,0.00,,SKC,0.00,VWS V14.01,2013-08-21 08:05:00,
2013-08-21 04:10:00,61.9,60.5,30.09,East,82,0.0,0.0,95,0.00,,SKC,0.00,VWS V14.01,2013-08-21 08:10:00,
2013-08-21 04:15:00,61.8,60.4,30.09,East,82,0.0,0.0,95,0.00,,SKC,0.00,VWS V14.01,2013-08-21 08:15:00,
2013-08-21 04:20:00,61.8,60.4,30.09,East,82,0.0,0.0,95,0.00,,SKC,0.00,VWS V14.01,2013-08-21 08:20:00,
2013-08-21 04:25:00,61.8,60.4,30.09,East,82,0.0,0.0,95,0.00,,SKC,0.00,VWS V14.01,2013-08-21 08:25:00,
2013-08-21 04:30:00,61.8,60.4,30.09,East,82,0.0,0.0,95,0.00,,SKC,0.00,VWS V14.01,2013-08-21 08:30:00,
2013-08-21 04:35:00,61.8,60.4,30.09,East,82,0.0,0.0,95,0.00,,SKC,0.00,VWS V14.01,2013-08-21 08:35:00,
2013-08-21 04:40:00,61.8,60.4,30.09,East,82,0.0,0.0,95,0.00,,SKC,0.00,VWS V14.01,2013-08-21 08:40:00,
2013-08-21 04:45:00,61.8,60.4,30.09,East,82,0.0,0.0,95,0.00,,SKC,0.00,VWS V14.01,2013-08-21 08:45:00,
2013-08-21 04:50:00,61.8,60.4,30.09,East,82,0.0,0.0,95,0.00,,SKC,0.00,VWS V14.01,2013-08-21 08:50:00,
2013-08-21 04:55:00,61.8,60.4,30.09,East,82,0.0,0.0,95,0.00,,SKC,0.00,VWS V14.01,2013-08-21 08:55:00,
2013-08-21 05:00:00,61.8,60.4,30.09,East,82,0.0,0.0,95,0.00,,SKC,0.00,VWS V14.01,2013-08-21 09:00:00,
2013-08-21 05:05:00,61.8,60.4,30.09,East,82,0.0,0.0,95,0.00,,SKC,0.00,VWS V14.01,2013-08-21 09:05:00,
2013-08-21 05:10:00,61.8,60.4,30.09,East,82,0.0,0.0,95,0.00,,SKC,0.00,VWS V14.01,2013-08-21 09:10:00,
2013-08-21 05:15:00,61.8,60.4,30.09,East,82,0.0,0.0,95,0.00,,SKC,0.00,VWS V14.01,2013-08-21 09:15:00,
2013-08-21 05:20:00,61.8,60.4,30.09,East,82,0.0,0.0,95,0.00,,SKC,0.00,VWS V14.01,2013-08-21 09:20:00,
2013-08-21 05:25:00,61.8,60.4,30.09,East,82,0.0,0.0,95,0.00,,SKC,0.00,VWS V14.01,2013-08-21 09:25:00,
2013-08-21 05:30:00,61.9,60.5,30.09,East,82,0.0,0.0,95,0.00,,SKC,0.00,VWS V14.01,2013-08-21 09:30:00,
2013-08-21 05:35:00,62.0,60.6,30.09,East,82,0.0,0.0,95,0.00,,SKC,0.00,VWS V14.01,2013-08-21 09:35:00,
2013-08-21 05:40:00,62.0,60.6,30.09,East,82,0.0,0.0,95,0.00,,SKC,0.00,VWS V14.01,2013-08-21 09:40:00,
2013-08-21 05:45:00,62.0,60.6,30.09,East,82,0.0,0.0,95,0.00,,SKC,0.00,VWS V14.01,2013-08-21 09:45:00,
2013-08-21 05:50:00,62.1,60.7,30.09,East,82,0.0,0.0,95,0.00,,SKC,0.00,VWS V14.01,2013-08-21 09:50:00,
2013-08-21 05:55:00,62.1,60.7,30.09,East,82,0.0,0.0,95,0.00,,SKC,0.00,VWS V14.01,2013-08-21 09:55:00,
2013-08-21 06:00:00,62.2,60.8,30.09,East,82,0.0,0.0,95,0.00,,SKC,0.00,VWS V14.01,2013-08-21 10:00:00,
2013-08-21 06:05:00,62.2,60.8,30.09,East,82,0.0,0.0,95,0.00,,SKC,0.00,VWS V14.01,2013-08-21 10:05:00,
2013-08-21 06:10:00,62.2,60.8,30.09,East,82,0.0,0.0,95,0.00,,SKC,0.00,VWS V14.01,2013-08-21 10:10:00,
2013-08-21 06:15:00,62.2,60.8,30.09,East,82,0.0,0.0,95,0.00,,SKC,0.00,VWS V14.01,2013-08-21 10:15:00,
2013-08-21 06:20:00,62.2,60.8,30.09,East,82,0.0,0.0,95,0.00,,SKC,0.00,VWS V14.01,2013-08-21 10:20:00,
2013-08-21 06:25:00,62.3,60.8,30.09,East,82,0.0,0.0,95,0.00,,SKC,0.00,VWS V14.01,2013-08-21 10:25:00,
2013-08-21 06:30:00,62.3,61.2,30.09,East,82,0.0,0.0,96,0.00,,SKC,0.00,VWS V14.01,2013-08-21 10:30:00,
2013-08-21 06:35:00,62.2,60.8,30.09,East,82,0.0,0.0,95,0.00,,SKC,0.00,VWS V14.01,2013-08-21 10:35:00,
2013-08-21 06:40:00,62.2,60.8,30.09,East,82,0.0,0.0,95,0.00,,SKC,0.00,VWS V14.01,2013-08-21 10:40:00,
2013-08-21 06:45:00,62.2,60.8,30.09,East,82,0.0,0.0,95,0.00,,SKC,0.00,VWS V14.01,2013-08-21 10:45:00,
2013-08-21 06:50:00,62.2,60.8,30.09,East,82,0.0,0.0,95,0.00,,SKC,0.00,VWS V14.01,2013-08-21 10:50:00,
2013-08-21 06:55:00,62.2,60.8,30.09,East,82,0.0,0.0,95,0.00,,SKC,0.00,VWS V14.01,2013-08-21 10:55:00,
2013-08-21 07:00:00,62.2,60.8,30.09,East,82,0.0,0.0,95,0.00,,SKC,0.00,VWS V14.01,2013-08-21 11:00:00,
2013-08-21 07:05:00,62.2,60.8,30.09,East,82,0.0,0.0,95,0.00,,SKC,0.00,VWS V14.01,2013-08-21 11:05:00,
2013-08-21 07:10:00,62.3,61.2,30.09,East,82,0.0,0.0,96,0.00,,SKC,0.00,VWS V14.01,2013-08-21 11:10:00,
2013-08-21 07:15:00,62.4,61.2,30.09,East,82,0.0,0.0,96,0.00,,SKC,0.00,VWS V14.01,2013-08-21 11:15:00,
2013-08-21 07:20:00,62.5,61.3,30.09,East,82,0.0,0.0,96,0.00,,SKC,0.00,VWS V14.01,2013-08-21 11:20:00,
2013-08-21 07:25:00,62.6,61.5,30.09,East,82,0.0,0.0,96,0.00,,SKC,0.00,VWS V14.01,2013-08-21 11:25:00,
2013-08-21 07:29:00,62.6,61.5,30.09,East,82,0.0,0.0,96,0.00,,SKC,0.00,VWS V14.01,2013-08-21 11:29:00,
2013-08-21 07:34:00,62.7,61.5,30.09,East,82,0.0,0.0,96,0.00,,SKC,0.00,VWS V14.01,2013-08-21 11:34:00,
2013-08-21 07:39:00,62.8,61.7,30.09,East,82,0.0,0.0,96,0.00,,SKC,0.00,VWS V14.01,2013-08-21 11:39:00,
2013-08-21 07:44:00,62.9,61.8,30.09,East,82,0.0,0.0,96,0.00,,SKC,0.00,VWS V14.01,2013-08-21 11:44:00,
2013-08-21 07:49:00,62.9,61.8,30.09,East,82,0.0,0.0,96,0.00,,SKC,0.00,VWS V14.01,2013-08-21 11:49:00,
2013-08-21 07:54:00,63.0,61.8,30.09,East,82,0.0,0.0,96,0.00,,SKC,0.00,VWS V14.01,2013-08-21 11:54:00,
2013-08-21 07:59:00,63.0,61.8,30.09,East,82,0.0,0.0,96,0.00,,SKC,0.00,VWS V14.01,2013-08-21 11:59:00,
2013-08-21 08:04:00,63.0,61.8,30.09,East,82,0.0,0.0,96,0.00,,SKC,0.00,VWS V14.01,2013-08-21 12:04:00,
2013-08-21 08:09:00,63.1,61.9,30.09,East,82,0.0,0.0,96,0.00,,SKC,0.00,VWS V14.01,2013-08-21 12:09:00,
2013-08-21 08:14:00,63.2,62.0,30.09,East,82,0.0,0.0,96,0.00,,SKC,0.00,VWS V14.01,2013-08-21 12:14:00,
2013-08-21 08:19:00,63.2,62.0,30.09,East,82,0.0,0.0,96,0.00,,SKC,0.00,VWS V14.01,2013-08-21 12:19:00,
2013-08-21 08:24:00,63.3,62.1,30.09,East,82,0.0,0.0,96,0.00,,SKC,0.00,VWS V14.01,2013-08-21 12:24:00,
2013-08-21 08:29:00,63.2,62.0,30.09,East,82,0.0,0.0,96,0.00,,SKC,0.00,VWS V14.01,2013-08-21 12:29:00,
2013-08-21 08:34:00,63.4,62.2,30.09,East,82,2.0,2.0,96,0.00,,SKC,0.00,VWS V14.01,2013-08-21 12:34:00,
2013-08-21 08:39:00,63.3,62.1,30.09,East,82,0.0,0.0,96,0.00,,SKC,0.00,VWS V14.01,2013-08-21 12:39:00,
2013-08-21 08:44:00,63.4,62.2,30.09,East,82,0.0,1.0,96,0.00,,SKC,0.00,VWS V14.01,2013-08-21 12:44:00,
2013-08-21 08:49:00,63.6,62.4,30.09,East,82,0.0,0.0,96,0.00,,SKC,0.00,VWS V14.01,2013-08-21 12:49:00,
2013-08-21 08:54:00,63.8,62.6,30.09,East,82,0.0,0.0,96,0.00,,SKC,0.00,VWS V14.01,2013-08-21 12:54:00,
2013-08-21 08:59:00,64.0,62.8,30.09,East,82,0.0,0.0,96,0.00,,SKC,0.00,VWS V14.01,2013-08-21 12:59:00,
2013-08-21 09:04:00,64.2,63.0,30.09,East,82,0.0,0.0,96,0.00,,SKC,0.00,VWS V14.01,2013-08-21 13:04:00,
2013-08-21 09:09:00,64.3,63.1,30.09,East,82,0.0,0.0,96,0.00,,SKC,0.00,VWS V14.01,2013-08-21 13:09:00,
2013-08-21 09:14:00,64.4,63.2,30.09,East,82,0.0,0.0,96,0.00,,SKC,0.00,VWS V14.01,2013-08-21 13:14:00,
2013-08-21 09:19:00,64.6,63.4,30.09,East,82,0.0,0.0,96,0.00,,SKC,0.00,VWS V14.01,2013-08-21 13:19:00,
2013-08-21 09:24:00,64.8,63.6,30.09,East,82,0.0,0.0,96,0.00,,SKC,0.00,VWS V14.01,2013-08-21 13:24:00,
2013-08-21 09:29:00,64.9,63.7,30.09,East,82,0.0,0.0,96,0.00,,SKC,0.00,VWS V14.01,2013-08-21 13:29:00,
2013-08-21 09:34:00,65.0,63.8,30.09,East,82,0.0,1.0,96,0.00,,SKC,0.00,VWS V14.01,2013-08-21 13:34:00,
2013-08-21 09:39:00,65.3,63.8,30.09,East,82,1.0,2.0,95,0.00,,SKC,0.00,VWS V14.01,2013-08-21 13:39:00,
2013-08-21 09:44:00,65.5,64.0,30.09,East,82,0.0,1.0,95,0.00,,SKC,0.00,VWS V14.01,2013-08-21 13:44:00,
2013-08-21 09:49:00,65.7,64.2,30.09,East,82,2.0,2.0,95,0.00,,SKC,0.00,VWS V14.01,2013-08-21 13:49:00,
2013-08-21 09:54:00,65.9,64.1,30.09,East,82,0.0,0.0,94,0.00,,SKC,0.00,VWS V14.01,2013-08-21 13:54:00,
2013-08-21 09:59:00,66.1,64.3,30.09,East,82,0.0,0.0,94,0.00,,SKC,0.00,VWS V14.01,2013-08-21 13:59:00,
2013-08-21 10:04:00,66.3,64.2,30.09,East,82,0.0,1.0,93,0.00,,SKC,0.00,VWS V14.01,2013-08-21 14:04:00,
2013-08-21 10:09:00,66.3,63.9,30.09,East,82,0.0,0.0,92,0.00,,SKC,0.00,VWS V14.01,2013-08-21 14:09:00,
2013-08-21 10:14:00,66.5,64.1,30.09,East,82,2.0,2.0,92,0.00,,SKC,0.00,VWS V14.01,2013-08-21 14:14:00,
2013-08-21 10:19:00,66.7,64.0,30.09,East,82,1.0,1.0,91,0.00,,SKC,0.00,VWS V14.01,2013-08-21 14:19:00,
2013-08-21 10:24:00,67.0,64.0,30.09,East,82,0.0,0.0,90,0.00,,SKC,0.00,VWS V14.01,2013-08-21 14:24:00,
2013-08-21 10:29:00,67.4,64.1,30.09,East,82,0.0,0.0,89,0.00,,SKC,0.00,VWS V14.01,2013-08-21 14:29:00,
2013-08-21 10:34:00,67.8,64.1,30.09,East,82,0.0,0.0,88,0.00,,SKC,0.00,VWS V14.01,2013-08-21 14:34:00,
2013-08-21 10:39:00,68.1,64.4,30.09,East,82,0.0,0.0,88,0.00,,SKC,0.00,VWS V14.01,2013-08-21 14:39:00,
2013-08-21 10:44:00,68.5,64.5,30.09,East,82,0.0,0.0,87,0.00,,SKC,0.00,VWS V14.01,2013-08-21 14:44:00,
2013-08-21 10:49:00,68.8,64.8,30.09,East,82,1.0,1.0,87,0.00,,SKC,0.00,VWS V14.01,2013-08-21 14:49:00,
2013-08-21 10:54:00,68.8,64.8,30.09,East,82,0.0,0.0,87,0.00,,SKC,0.00,VWS V14.01,2013-08-21 14:54:00,
2013-08-21 10:59:00,68.7,64.7,30.09,East,82,0.0,0.0,87,0.00,,SKC,0.00,VWS V14.01,2013-08-21 14:59:00,
2013-08-21 11:04:00,68.6,64.6,30.09,East,82,0.0,0.0,87,0.00,,SKC,0.00,VWS V14.01,2013-08-21 15:04:00,
2013-08-21 11:09:00,68.5,64.5,30.09,East,82,0.0,0.0,87,0.00,,SKC,0.00,VWS V14.01,2013-08-21 15:09:00,
2013-08-21 11:14:00,68.5,64.8,30.09,East,82,0.0,0.0,88,0.00,,SKC,0.00,VWS V14.01,2013-08-21 15:14:00,
2013-08-21 11:19:00,68.5,65.1,30.09,East,82,0.0,0.0,89,0.00,,SKC,0.00,VWS V14.01,2013-08-21 15:19:00,
2013-08-21 11:24:00,68.4,65.0,30.09,East,82,0.0,0.0,89,0.00,,SKC,0.00,VWS V14.01,2013-08-21 15:24:00,
2013-08-21 11:29:00,68.4,65.0,30.09,East,82,0.0,0.0,89,0.00,,SKC,0.00,VWS V14.01,2013-08-21 15:29:00,
2013-08-21 11:34:00,68.5,65.5,30.09,East,82,0.0,0.0,90,0.00,,SKC,0.00,VWS V14.01,2013-08-21 15:34:00,
2013-08-21 11:39:00,68.7,65.7,30.09,East,82,0.0,0.0,90,0.00,,SKC,0.00,VWS V14.01,2013-08-21 15:39:00,
2013-08-21 11:44:00,69.0,65.9,30.09,East,82,0.0,0.0,90,0.00,,SKC,0.00,VWS V14.01,2013-08-21 15:44:00,
2013-08-21 11:49:00,69.2,66.2,30.09,East,82,0.0,0.0,90,0.00,,SKC,0.00,VWS V14.01,2013-08-21 15:49:00,
2013-08-21 11:54:00,69.4,66.0,30.09,East,82,1.0,1.0,89,0.00,,SKC,0.00,VWS V14.01,2013-08-21 15:54:00,
2013-08-21 11:59:00,69.4,65.7,30.09,East,82,2.0,3.0,88,0.00,,SKC,0.00,VWS V14.01,2013-08-21 15:59:00,
2013-08-21 12:04:00,69.2,65.5,30.09,East,82,0.0,1.0,88,0.00,,SKC,0.00,VWS V14.01,2013-08-21 16:04:00,
2013-08-21 12:09:00,69.3,65.6,30.09,East,82,0.0,0.0,88,0.01,,SKC,0.01,VWS V14.01,2013-08-21 16:09:00,
2013-08-21 12:14:00,69.4,65.7,30.09,East,80,2.0,5.0,88,0.01,,SKC,0.01,VWS V14.01,2013-08-21 16:14:00,
2013-08-21 12:19:00,69.3,65.6,30.09,East,80,0.0,0.0,88,0.01,,SKC,0.01,VWS V14.01,2013-08-21 16:19:00,
2013-08-21 12:24:00,69.3,65.6,30.09,East,80,0.0,0.0,88,0.01,,SKC,0.01,VWS V14.01,2013-08-21 16:24:00,
2013-08-21 12:29:00,69.4,66.0,30.09,East,80,0.0,0.0,89,0.01,,SKC,0.01,VWS V14.01,2013-08-21 16:29:00,
2013-08-21 12:34:00,69.4,65.4,30.09,East,80,1.0,1.0,87,0.01,,SKC,0.01,VWS V14.01,2013-08-21 16:34:00,
2013-08-21 12:39:00,69.5,65.5,30.09,East,79,1.0,3.0,87,0.01,,SKC,0.01,VWS V14.01,2013-08-21 16:39:00,
2013-08-21 12:44:00,69.7,66.0,30.09,East,80,0.0,0.0,88,0.01,,SKC,0.01,VWS V14.01,2013-08-21 16:44:00,
2013-08-21 12:49:00,69.5,65.5,30.09,SW,234,0.0,0.0,87,0.01,,SKC,0.01,VWS V14.01,2013-08-21 16:49:00,
2013-08-21 12:54:00,69.7,66.0,30.09,SSW,207,2.0,2.0,88,0.01,,SKC,0.01,VWS V14.01,2013-08-21 16:54:00,
2013-08-21 12:59:00,69.6,65.2,30.09,SW,214,3.0,5.0,86,0.01,,SKC,0.01,VWS V14.01,2013-08-21 16:59:00,
2013-08-21 13:04:00,69.6,65.6,30.09,SW,215,0.0,0.0,87,0.01,,SKC,0.01,VWS V14.01,2013-08-21 17:04:00,
2013-08-21 13:08:00,69.8,65.4,30.09,SW,215,3.0,3.0,86,0.00,,SKC,0.01,VWS V14.01,2013-08-21 17:08:00,
2013-08-21 13:13:00,70.0,65.6,30.09,SW,222,0.0,3.0,86,0.00,,SKC,0.01,VWS V14.01,2013-08-21 17:13:00,
2013-08-21 13:18:00,70.4,66.0,30.09,SSW,207,0.0,0.0,86,0.00,,SKC,0.01,VWS V14.01,2013-08-21 17:18:00,
2013-08-21 13:23:00,70.6,65.9,30.09,SSW,210,0.0,0.0,85,0.00,,SKC,0.01,VWS V14.01,2013-08-21 17:23:00,
2013-08-21 13:28:00,71.0,66.6,30.09,SSW,198,3.0,3.0,86,0.00,,SKC,0.01,VWS V14.01,2013-08-21 17:28:00,
2013-08-21 13:33:00,71.2,65.8,30.09,East,80,1.0,3.0,83,0.00,,SKC,0.01,VWS V14.01,2013-08-21 17:33:00,
2013-08-21 13:38:00,71.2,65.8,30.09,West,265,0.0,0.0,83,0.00,,SKC,0.01,VWS V14.01,2013-08-21 17:38:00,
2013-08-21 13:43:00,71.3,65.9,30.09,NE,36,1.0,1.0,83,0.00,,SKC,0.01,VWS V14.01,2013-08-21 17:43:00,
2013-08-21 13:48:00,71.4,66.0,30.09,NE,36,5.0,5.0,83,0.00,,SKC,0.01,VWS V14.01,2013-08-21 17:48:00,
2013-08-21 13:53:00,71.5,65.7,30.09,NNE,13,3.0,4.0,82,0.00,,SKC,0.01,VWS V14.01,2013-08-21 17:53:00,
2013-08-21 13:58:00,71.9,66.1,30.09,NE,38,2.0,3.0,82,0.00,,SKC,0.01,VWS V14.01,2013-08-21 17:58:00,
2013-08-21 14:03:00,72.1,65.9,30.09,WNW,302,1.0,1.0,81,0.00,,SKC,0.01,VWS V14.01,2013-08-21 18:03:00,
2013-08-21 14:08:00,72.3,66.2,30.09,North,351,1.0,1.0,81,0.00,,SKC,0.01,VWS V14.01,2013-08-21 18:08:00,
2013-08-21 14:13:00,72.1,65.6,30.09,ESE,109,4.0,5.0,80,0.00,,SKC,0.01,VWS V14.01,2013-08-21 18:13:00,
2013-08-21 14:18:00,71.9,65.8,30.09,ESE,115,3.0,5.0,81,0.00,,SKC,0.01,VWS V14.01,2013-08-21 18:18:00,
2013-08-21 14:23:00,71.7,65.2,30.09,East,90,2.0,2.0,80,0.00,,SKC,0.01,VWS V14.01,2013-08-21 18:23:00,
2013-08-21 14:28:00,71.6,64.8,30.09,North,355,0.0,0.0,79,0.00,,SKC,0.01,VWS V14.01,2013-08-21 18:28:00,
2013-08-21 14:33:00,71.6,65.1,30.09,North,360,1.0,1.0,80,0.00,,SKC,0.01,VWS V14.01,2013-08-21 18:33:00,
2013-08-21 14:38:00,71.5,65.0,30.09,NE,56,3.0,3.0,80,0.00,,SKC,0.01,VWS V14.01,2013-08-21 18:38:00,
2013-08-21 14:43:00,71.3,65.2,30.09,NE,55,1.0,1.0,81,0.00,,SKC,0.01,VWS V14.01,2013-08-21 18:43:00,
2013-08-21 14:48:00,71.2,65.1,30.09,NNE,15,5.0,6.0,81,0.00,,SKC,0.01,VWS V14.01,2013-08-21 18:48:00,
2013-08-21 14:53:00,71.0,65.2,30.09,ESE,111,4.0,4.0,82,0.00,,SKC,0.01,VWS V14.01,2013-08-21 18:53:00,
2013-08-21 14:58:00,70.8,64.7,30.09,ESE,117,4.0,5.0,81,0.00,,SKC,0.01,VWS V14.01,2013-08-21 18:58:00,
2013-08-21 15:03:00,70.8,64.7,30.09,SW,231,1.0,2.0,81,0.00,,SKC,0.01,VWS V14.01,2013-08-21 19:03:00,
2013-08-21 15:08:00,71.0,64.5,30.09,NNE,22,0.0,0.0,80,0.00,,SKC,0.01,VWS V14.01,2013-08-21 19:08:00,
2013-08-21 15:13:00,71.3,65.2,30.09,ESE,103,3.0,3.0,81,0.00,,SKC,0.01,VWS V14.01,2013-08-21 19:13:00,
2013-08-21 15:18:00,71.3,64.5,30.09,South,179,3.0,5.0,79,0.00,,SKC,0.01,VWS V14.01,2013-08-21 19:18:00,
2013-08-21 15:23:00,71.5,64.7,30.09,South,190,0.0,0.0,79,0.00,,SKC,0.01,VWS V14.01,2013-08-21 19:23:00,
2013-08-21 15:28:00,71.8,64.6,30.09,SE,129,2.0,2.0,78,0.00,,SKC,0.01,VWS V14.01,2013-08-21 19:28:00,
2013-08-21 15:33:00,72.0,65.1,30.09,SSW,195,2.0,3.0,79,0.00,,SKC,0.01,VWS V14.01,2013-08-21 19:33:00,
2013-08-21 15:38:00,72.1,64.1,30.09,NNW,338,0.0,2.0,76,0.00,,SKC,0.01,VWS V14.01,2013-08-21 19:38:00,
2013-08-21 15:43:00,72.2,63.5,30.09,NW,317,3.0,3.0,74,0.00,,SKC,0.01,VWS V14.01,2013-08-21 19:43:00,
2013-08-21 15:48:00,72.2,64.2,30.09,ENE,67,2.0,2.0,76,0.00,,SKC,0.01,VWS V14.01,2013-08-21 19:48:00,
2013-08-21 15:53:00,72.1,63.8,30.09,NE,54,0.0,0.0,75,0.00,,SKC,0.01,VWS V14.01,2013-08-21 19:53:00,
2013-08-21 15:58:00,71.9,64.3,30.09,NE,54,1.0,2.0,77,0.00,,SKC,0.01,VWS V14.01,2013-08-21 19:58:00,
2013-08-21 16:03:00,71.7,64.1,30.09,SSW,196,5.0,5.0,77,0.00,,SKC,0.01,VWS V14.01,2013-08-21 20:03:00,
2013-08-21 16:08:00,71.5,64.7,30.09,SSW,195,0.0,0.0,79,0.00,,SKC,0.01,VWS V14.01,2013-08-21 20:08:00,
2013-08-21 16:13:00,71.3,64.1,30.09,SSW,195,2.0,3.0,78,0.00,,SKC,0.01,VWS V14.01,2013-08-21 20:13:00,
2013-08-21 16:18:00,71.3,63.7,30.09,South,174,0.0,3.0,77,0.00,,SKC,0.01,VWS V14.01,2013-08-21 20:18:00,
2013-08-21 16:23:00,71.6,64.0,30.09,South,178,2.0,5.0,77,0.00,,SKC,0.01,VWS V14.01,2013-08-21 20:23:00,
2013-08-21 16:28:00,71.6,64.0,30.09,South,176,2.0,3.0,77,0.00,,SKC,0.01,VWS V14.01,2013-08-21 20:28:00,
2013-08-21 16:33:00,71.7,64.5,30.09,South,176,1.0,1.0,78,0.00,,SKC,0.01,VWS V14.01,2013-08-21 20:33:00,
2013-08-21 16:38:00,71.7,64.1,30.09,South,176,0.0,0.0,77,0.00,,SKC,0.01,VWS V14.01,2013-08-21 20:38:00,
2013-08-21 16:43:00,71.6,64.0,30.09,ENE,61,3.0,4.0,77,0.00,,SKC,0.01,VWS V14.01,2013-08-21 20:43:00,
2013-08-21 16:48:00,71.8,64.2,30.09,NNE,17,2.0,4.0,77,0.00,,SKC,0.01,VWS V14.01,2013-08-21 20:48:00,
2013-08-21 16:53:00,71.8,64.2,30.09,NNE,17,0.0,1.0,77,0.00,,SKC,0.01,VWS V14.01,2013-08-21 20:53:00,
2013-08-21 16:58:00,71.9,64.7,30.09,NNE,17,0.0,0.0,78,0.00,,SKC,0.01,VWS V14.01,2013-08-21 20:58:00,
2013-08-21 17:03:00,72.0,64.4,30.09,NNE,17,0.0,0.0,77,0.00,,SKC,0.01,VWS V14.01,2013-08-21 21:03:00,
2013-08-21 17:08:00,72.3,64.7,30.09,NNE,17,0.0,0.0,77,0.00,,SKC,0.01,VWS V14.01,2013-08-21 21:08:00,
2013-08-21 17:13:00,72.5,64.5,30.09,NNE,17,0.0,1.0,76,0.00,,SKC,0.01,VWS V14.01,2013-08-21 21:13:00,
2013-08-21 17:18:00,72.6,64.6,30.09,NNE,17,0.0,0.0,76,0.00,,SKC,0.01,VWS V14.01,2013-08-21 21:18:00,
2013-08-21 17:23:00,72.7,64.7,30.09,NNE,17,0.0,0.0,76,0.00,,SKC,0.01,VWS V14.01,2013-08-21 21:23:00,
2013-08-21 17:28:00,73.1,65.1,30.09,NNE,17,0.0,0.0,76,0.00,,SKC,0.01,VWS V14.01,2013-08-21 21:28:00,
2013-08-21 17:33:00,74.3,65.9,30.09,NNE,17,2.0,2.0,75,0.00,,SKC,0.01,VWS V14.01,2013-08-21 21:33:00,
2013-08-21 17:38:00,74.6,65.0,30.09,NNE,17,2.0,3.0,72,0.00,,SKC,0.01,VWS V14.01,2013-08-21 21:38:00,
2013-08-21 17:43:00,74.8,66.0,30.09,NNE,17,1.0,3.0,74,0.00,,SKC,0.01,VWS V14.01,2013-08-21 21:43:00,
2013-08-21 17:48:00,74.8,65.2,30.09,NNE,17,2.0,3.0,72,0.00,,SKC,0.01,VWS V14.01,2013-08-21 21:48:00,
2013-08-21 17:53:00,75.1,64.2,30.09,NNE,17,3.0,3.0,69,0.00,,SKC,0.01,VWS V14.01,2013-08-21 21:53:00,
2013-08-21 17:58:00,75.4,64.5,30.09,NNE,17,1.0,4.0,69,0.00,,SKC,0.01,VWS V14.01,2013-08-21 21:58:00,
2013-08-21 18:03:00,75.6,64.3,30.09,NNE,17,0.0,2.0,68,0.00,,SKC,0.01,VWS V14.01,2013-08-21 22:03:00,
2013-08-21 18:08:00,75.7,64.4,30.09,NNE,17,0.0,0.0,68,0.00,,SKC,0.01,VWS V14.01,2013-08-21 22:08:00,
2013-08-21 18:13:00,75.5,64.2,30.09,NNE,17,2.0,3.0,68,0.00,,SKC,0.01,VWS V14.01,2013-08-21 22:13:00,
2013-08-21 18:18:00,74.8,64.8,30.09,NNE,17,0.0,2.0,71,0.00,,SKC,0.01,VWS V14.01,2013-08-21 22:18:00,
2013-08-21 18:23:00,74.3,64.7,30.09,NNE,17,0.0,1.0,72,0.00,,SKC,0.01,VWS V14.01,2013-08-21 22:23:00,
2013-08-21 18:28:00,73.9,65.1,30.09,NNE,17,0.0,0.0,74,0.00,,SKC,0.01,VWS V14.01,2013-08-21 22:28:00,
2013-08-21 18:33:00,73.9,64.7,30.09,NNE,17,0.0,0.0,73,0.00,,SKC,0.01,VWS V14.01,2013-08-21 22:33:00,
2013-08-21 18:38:00,73.7,65.3,30.09,NNE,17,0.0,0.0,75,0.00,,SKC,0.01,VWS V14.01,2013-08-21 22:38:00,
2013-08-21 18:43:00,73.2,64.4,30.09,NNE,17,1.0,3.0,74,0.00,,SKC,0.01,VWS V14.01,2013-08-21 22:43:00,
2013-08-21 18:48:00,72.9,64.5,30.09,NNE,17,0.0,0.0,75,0.00,,SKC,0.01,VWS V14.01,2013-08-21 22:48:00,
2013-08-21 18:53:00,72.4,64.8,30.09,NNE,17,0.0,1.0,77,0.00,,SKC,0.01,VWS V14.01,2013-08-21 22:53:00,
2013-08-21 18:58:00,72.0,64.4,30.09,NNE,17,0.0,0.0,77,0.00,,SKC,0.01,VWS V14.01,2013-08-21 22:58:00,
2013-08-21 19:03:00,71.6,64.4,30.09,NNE,16,0.0,0.0,78,0.00,,SKC,0.01,VWS V14.01,2013-08-21 23:03:00,
2013-08-21 19:08:00,71.5,64.7,30.09,NNE,16,0.0,0.0,79,0.00,,SKC,0.01,VWS V14.01,2013-08-21 23:08:00,
2013-08-21 19:13:00,71.3,64.8,30.09,NNE,16,0.0,0.0,80,0.00,,SKC,0.01,VWS V14.01,2013-08-21 23:13:00,
2013-08-21 19:18:00,71.1,65.0,30.09,NNE,15,0.0,0.0,81,0.00,,SKC,0.01,VWS V14.01,2013-08-21 23:18:00,
2013-08-21 19:23:00,70.8,64.7,30.09,NNE,15,0.0,0.0,81,0.00,,SKC,0.01,VWS V14.01,2013-08-21 23:23:00,
2013-08-21 19:28:00,70.6,65.2,30.09,NNE,16,1.0,1.0,83,0.00,,SKC,0.01,VWS V14.01,2013-08-21 23:28:00,
2013-08-21 19:33:00,70.4,65.0,30.09,NNE,16,0.0,0.0,83,0.00,,SKC,0.01,VWS V14.01,2013-08-21 23:33:00,
2013-08-21 19:38:00,70.1,65.1,30.09,NNE,16,0.0,0.0,84,0.00,,SKC,0.01,VWS V14.01,2013-08-21 23:38:00,
2013-08-21 19:43:00,69.9,64.8,30.09,NNE,15,1.0,1.0,84,0.00,,SKC,0.01,VWS V14.01,2013-08-21 23:43:00,
2013-08-21 19:48:00,69.7,65.0,30.09,NNE,15,0.0,0.0,85,0.00,,SKC,0.01,VWS V14.01,2013-08-21 23:48:00,
2013-08-21 19:53:00,69.4,64.7,30.09,NNE,15,0.0,0.0,85,0.00,,SKC,0.01,VWS V14.01,2013-08-21 23:53:00,
2013-08-21 19:58:00,69.1,64.1,30.09,NNE,16,1.0,2.0,84,0.00,,SKC,0.01,VWS V14.01,2013-08-21 23:58:00,
2013-08-21 20:03:00,69.1,63.7,30.09,NNE,15,0.0,0.0,83,0.00,,SKC,0.01,VWS V14.01,2013-08-22 00:03:00,
2013-08-21 20:08:00,69.0,63.6,30.09,NNE,16,0.0,0.0,83,0.00,,SKC,0.01,VWS V14.01,2013-08-22 00:08:00,
2013-08-21 20:13:00,68.8,64.4,30.09,NNE,16,0.0,0.0,86,0.00,,SKC,0.01,VWS V14.01,2013-08-22 00:13:00,
2013-08-21 20:18:00,68.3,64.0,30.09,NNE,15,0.0,0.0,86,0.00,,SKC,0.01,VWS V14.01,2013-08-22 00:18:00,
2013-08-21 20:23:00,67.7,63.7,30.09,NNE,15,0.0,0.0,87,0.00,,SKC,0.01,VWS V14.01,2013-08-22 00:23:00,
2013-08-21 20:27:00,67.2,63.5,30.09,NNE,15,0.0,0.0,88,0.00,,SKC,0.01,VWS V14.01,2013-08-22 00:27:00,
2013-08-21 20:32:00,66.8,63.5,30.09,NNE,15,0.0,0.0,89,0.00,,SKC,0.01,VWS V14.01,2013-08-22 00:32:00,
2013-08-21 20:37:00,66.5,63.2,30.09,NNE,15,0.0,0.0,89,0.00,,SKC,0.01,VWS V14.01,2013-08-22 00:37:00,
2013-08-21 20:42:00,66.2,63.2,30.09,NNE,16,0.0,0.0,90,0.00,,SKC,0.01,VWS V14.01,2013-08-22 00:42:00,
2013-08-21 20:47:00,65.9,62.9,30.09,NNE,16,0.0,0.0,90,0.00,,SKC,0.01,VWS V14.01,2013-08-22 00:47:00,
2013-08-21 20:52:00,65.8,62.8,30.09,NNE,15,2.0,4.0,90,0.00,,SKC,0.01,VWS V14.01,2013-08-22 00:52:00,
2013-08-21 20:57:00,65.9,62.9,30.09,NNE,15,0.0,1.0,90,0.00,,SKC,0.01,VWS V14.01,2013-08-22 00:57:00,
2013-08-21 21:02:00,65.9,62.2,30.09,NNE,16,0.0,1.0,88,0.00,,SKC,0.01,VWS V14.01,2013-08-22 01:02:00,
2013-08-21 21:07:00,66.0,61.7,30.09,NNE,15,2.0,3.0,86,0.00,,SKC,0.01,VWS V14.01,2013-08-22 01:07:00,
2013-08-21 21:12:00,66.2,61.9,30.09,NNE,16,0.0,0.0,86,0.00,,SKC,0.01,VWS V14.01,2013-08-22 01:12:00,
2013-08-21 21:17:00,66.2,61.9,30.09,NNE,16,0.0,0.0,86,0.00,,SKC,0.01,VWS V14.01,2013-08-22 01:17:00,
2013-08-21 21:22:00,66.1,61.8,30.09,NNE,15,0.0,0.0,86,0.00,,SKC,0.01,VWS V14.01,2013-08-22 01:22:00,
2013-08-21 21:27:00,65.8,61.8,30.09,NNE,15,0.0,0.0,87,0.00,,SKC,0.01,VWS V14.01,2013-08-22 01:27:00,
2013-08-21 21:32:00,65.4,61.4,30.09,NNE,16,0.0,1.0,87,0.00,,SKC,0.01,VWS V14.01,2013-08-22 01:32:00,
2013-08-21 21:37:00,65.2,61.2,30.09,NNE,16,0.0,0.0,87,0.00,,SKC,0.01,VWS V14.01,2013-08-22 01:37:00,
2013-08-21 21:42:00,65.1,61.1,30.09,NNE,16,0.0,1.0,87,0.00,,SKC,0.01,VWS V14.01,2013-08-22 01:42:00,
2013-08-21 21:47:00,65.1,61.1,30.09,NNE,16,0.0,0.0,87,0.00,,SKC,0.01,VWS V14.01,2013-08-22 01:47:00,
2013-08-21 21:52:00,65.1,61.1,30.09,NNE,15,0.0,0.0,87,0.00,,SKC,0.01,VWS V14.01,2013-08-22 01:52:00,
2013-08-21 21:57:00,65.2,61.2,30.09,NNE,16,0.0,1.0,87,0.00,,SKC,0.01,VWS V14.01,2013-08-22 01:57:00,
2013-08-21 22:02:00,65.2,61.2,30.09,NNE,16,0.0,0.0,87,0.00,,SKC,0.01,VWS V14.01,2013-08-22 02:02:00,
2013-08-21 22:07:00,64.8,61.2,30.09,NNE,16,0.0,0.0,88,0.00,,SKC,0.01,VWS V14.01,2013-08-22 02:07:00,
2013-08-21 22:12:00,64.4,61.1,30.09,NNE,16,2.0,2.0,89,0.00,,SKC,0.01,VWS V14.01,2013-08-22 02:12:00,
2013-08-21 22:17:00,64.1,60.5,30.09,NNE,15,0.0,0.0,88,0.00,,SKC,0.01,VWS V14.01,2013-08-22 02:17:00,
2013-08-21 22:22:00,64.0,60.4,30.09,NNE,16,0.0,0.0,88,0.00,,SKC,0.01,VWS V14.01,2013-08-22 02:22:00,
2013-08-21 22:27:00,63.9,60.3,30.09,NNE,16,0.0,1.0,88,0.00,,SKC,0.01,VWS V14.01,2013-08-22 02:27:00,
2013-08-21 22:32:00,63.7,60.4,30.09,NNE,16,0.0,0.0,89,0.00,,SKC,0.01,VWS V14.01,2013-08-22 02:32:00,
2013-08-21 22:37:00,63.6,60.3,30.09,NNE,16,0.0,0.0,89,0.00,,SKC,0.01,VWS V14.01,2013-08-22 02:37:00,
2013-08-21 22:42:00,63.4,60.4,30.09,NNE,16,1.0,1.0,90,0.00,,SKC,0.01,VWS V14.01,2013-08-22 02:42:00,
2013-08-21 22:47:00,63.1,60.1,30.09,NNE,15,0.0,0.0,90,0.00,,SKC,0.01,VWS V14.01,2013-08-22 02:47:00,
2013-08-21 22:52:00,62.8,59.8,30.09,NNE,16,0.0,0.0,90,0.00,,SKC,0.01,VWS V14.01,2013-08-22 02:52:00,
2013-08-21 22:57:00,62.5,59.8,30.09,NNE,16,0.0,0.0,91,0.00,,SKC,0.01,VWS V14.01,2013-08-22 02:57:00,
2013-08-21 23:02:00,62.3,59.6,30.09,NNE,16,1.0,1.0,91,0.00,,SKC,0.01,VWS V14.01,2013-08-22 03:02:00,
2013-08-21 23:07:00,62.1,59.8,30.09,NNE,15,0.0,1.0,92,0.00,,SKC,0.01,VWS V14.01,2013-08-22 03:07:00,
2013-08-21 23:12:00,62.0,59.7,30.09,NNE,15,2.0,3.0,92,0.00,,SKC,0.01,VWS V14.01,2013-08-22 03:12:00,
2013-08-21 23:17:00,61.9,59.5,30.09,NNE,16,0.0,2.0,92,0.00,,SKC,0.01,VWS V14.01,2013-08-22 03:17:00,
2013-08-21 23:22:00,61.8,59.5,30.09,NNE,16,0.0,0.0,92,0.00,,SKC,0.01,VWS V14.01,2013-08-22 03:22:00,
2013-08-21 23:27:00,61.7,59.7,30.09,NNE,16,0.0,1.0,93,0.00,,SKC,0.01,VWS V14.01,2013-08-22 03:27:00,
2013-08-21 23:32:00,61.6,59.3,30.09,NNE,16,0.0,0.0,92,0.00,,SKC,0.01,VWS V14.01,2013-08-22 03:32:00,
2013-08-21 23:37:00,61.5,59.5,30.09,NNE,15,0.0,0.0,93,0.00,,SKC,0.01,VWS V14.01,2013-08-22 03:37:00,
2013-08-21 23:42:00,61.4,59.4,30.09,NNE,15,0.0,0.0,93,0.00,,SKC,0.01,VWS V14.01,2013-08-22 03:42:00,
2013-08-21 23:47:00,61.3,59.3,30.09,NNE,15,0.0,0.0,93,0.00,,SKC,0.01,VWS V14.01,2013-08-22 03:47:00,
2013-08-21 23:52:00,61.2,59.2,30.09,NNE,16,0.0,0.0,93,0.00,,SKC,0.01,VWS V14.01,2013-08-22 03:52:00,
2013-08-21 23:57:00,61.1,59.1,30.09,NNE,15,0.0,0.0,93,0.00,,SKC,0.01,VWS V14.01,2013-08-22 03:57:00,